Detroit (DTW/KDTW)

Information

Location
Detroit, MI
Local Time
23:39 / 11:39 pm
GMT Time
03:39 / 3:39 am
Gates
No FAA reported delays
METAR KDTW 260300Z 32008KT 10SM SCT020 BKN035 OVC060 15/13 A2963 RMK AO2 T01500128
TAF KDTW 260214Z 2602/2706 32007KT P6SM BKN018 OVC040 FM260400 30008KT P6SM OVC014 TEMPO 2604/2608 OVC010 FM261400 28007KT P6SM OVC024 FM261800 24006KT P6SM BKN040 FM270100 VRB03KT P6SM SCT045 OVC080